createdAt,value
2018-09-28T00:01:57.525Z,83.40
2018-09-28T00:04:32.064Z,84.80
2018-09-28T00:07:05.510Z,84.60
2018-09-28T00:09:38.975Z,84.80
2018-09-28T00:12:12.403Z,83.80
2018-09-28T00:14:45.864Z,83.80
2018-09-28T00:17:19.301Z,83.40
2018-09-28T00:19:52.749Z,83.50
2018-09-28T00:22:26.174Z,83.60
2018-09-28T00:24:59.638Z,83.50
2018-09-28T00:27:33.068Z,84.20
2018-09-28T00:30:06.819Z,84.70
2018-09-28T00:32:40.293Z,84.70
2018-09-28T00:35:13.783Z,85.70
2018-09-28T00:37:47.240Z,85.30
2018-09-28T00:40:21.812Z,86.20
2018-09-28T00:42:55.277Z,86.50
2018-09-28T00:45:28.761Z,86.00
2018-09-28T00:48:02.217Z,85.50
2018-09-28T00:50:35.687Z,85.40
2018-09-28T00:53:09.140Z,85.20
2018-09-28T00:55:42.668Z,86.20
2018-09-28T00:58:16.115Z,86.80
2018-09-28T01:00:49.594Z,86.80
2018-09-28T01:03:23.077Z,87.60
2018-09-28T01:05:56.555Z,86.60
2018-09-28T01:08:30.032Z,86.10
2018-09-28T01:11:03.514Z,85.50
2018-09-28T01:13:37.035Z,85.80
2018-09-28T01:16:10.495Z,85.40
2018-09-28T01:18:43.949Z,85.70
2018-09-28T01:21:17.440Z,84.70
2018-09-28T01:23:50.904Z,85.40
2018-09-28T01:26:24.378Z,86.40
2018-09-28T01:28:57.856Z,85.10
2018-09-28T01:31:31.456Z,87.90
2018-09-28T01:34:04.913Z,89.70
2018-09-28T01:36:38.399Z,89.50
2018-09-28T01:39:11.882Z,89.20
2018-09-28T01:41:45.392Z,88.10
2018-09-28T01:44:18.854Z,88.10
2018-09-28T01:46:52.319Z,88.00
2018-09-28T01:49:25.775Z,88.10
2018-09-28T01:51:59.256Z,88.50
2018-09-28T01:54:32.827Z,87.20
2018-09-28T01:57:06.308Z,87.40
2018-09-28T01:59:39.768Z,88.00
2018-09-28T02:02:13.268Z,87.20
2018-09-28T02:04:46.724Z,88.50
2018-09-28T02:07:20.193Z,88.20
2018-09-28T02:09:53.712Z,88.50
2018-09-28T02:12:27.195Z,88.80
2018-09-28T02:15:00.680Z,87.90
2018-09-28T02:17:34.161Z,87.80
2018-09-28T02:20:07.692Z,87.80
2018-09-28T02:22:41.195Z,88.80
2018-09-28T02:25:14.720Z,89.80
2018-09-28T02:27:48.191Z,90.00
2018-09-28T02:30:21.661Z,87.80
2018-09-28T02:32:55.154Z,89.00
2018-09-28T02:35:28.616Z,89.70
2018-09-28T02:38:02.096Z,89.80
2018-09-28T02:40:36.620Z,90.20
2018-09-28T02:43:10.129Z,90.20
2018-09-28T02:45:43.596Z,90.00
2018-09-28T02:48:17.069Z,89.50
2018-09-28T02:50:50.536Z,89.50
2018-09-28T02:53:24.012Z,89.00
2018-09-28T02:55:57.522Z,89.50
2018-09-28T02:58:30.973Z,89.30
2018-09-28T03:01:04.466Z,89.20
2018-09-28T03:03:37.904Z,88.90
2018-09-28T03:06:11.459Z,89.40
2018-09-28T03:08:44.916Z,88.20
2018-09-28T03:11:18.383Z,89.60
2018-09-28T03:13:51.842Z,89.50
2018-09-28T03:16:25.323Z,89.10
2018-09-28T03:18:58.820Z,89.20
2018-09-28T03:21:32.357Z,90.00
2018-09-28T03:24:05.853Z,90.10
2018-09-28T03:26:39.331Z,89.80
2018-09-28T03:29:12.776Z,90.40
2018-09-28T03:31:46.247Z,90.40
2018-09-28T03:34:19.700Z,90.70
2018-09-28T03:36:53.196Z,90.60
2018-09-28T03:39:26.668Z,90.20
2018-09-28T03:42:00.153Z,90.50
2018-09-28T03:44:33.600Z,90.50
2018-09-28T03:47:07.140Z,87.90
2018-09-28T03:49:40.601Z,90.90
2018-09-28T03:52:14.067Z,91.00
2018-09-28T03:54:47.516Z,90.90
2018-09-28T05:40:04.852Z,88.10
2018-09-28T05:42:38.641Z,88.30
2018-09-28T05:45:12.162Z,88.80
2018-09-28T05:47:45.657Z,89.30
2018-09-28T05:50:19.193Z,89.10
2018-09-28T05:55:52.039Z,90.00
2018-09-28T05:58:30.783Z,90.30
2018-09-28T06:01:09.701Z,90.30
2018-09-28T06:04:51.928Z,90.40
2018-09-28T06:07:25.396Z,90.50
2018-09-28T06:10:07.356Z,90.90
2018-09-28T06:12:40.913Z,90.90
2018-09-28T06:15:14.384Z,90.80
2018-09-28T06:17:47.839Z,91.20
2018-09-28T06:20:21.404Z,91.00
2018-09-28T06:22:54.888Z,91.10
2018-09-28T06:25:28.412Z,91.40
2018-09-28T06:28:01.874Z,92.10
2018-09-28T06:30:36.396Z,92.00
2018-09-28T06:33:09.848Z,91.90
2018-09-28T06:35:43.376Z,92.10
2018-09-28T06:38:16.812Z,92.00
2018-09-28T06:40:50.316Z,91.90
2018-09-28T06:43:23.764Z,92.20
2018-09-28T06:45:57.235Z,92.00
2018-09-28T06:48:30.701Z,92.40
2018-09-28T06:51:04.175Z,92.70
2018-09-28T06:53:37.667Z,92.30
2018-09-28T06:56:11.140Z,93.10
2018-09-28T06:58:44.589Z,91.00
2018-09-28T07:01:18.065Z,92.10
2018-09-28T07:03:51.526Z,93.10
2018-09-28T07:06:25.093Z,92.60
2018-09-28T07:08:58.568Z,91.60
2018-09-28T07:11:32.040Z,91.30
2018-09-28T07:14:05.500Z,92.40
2018-09-28T07:16:39.242Z,91.60
2018-09-28T07:19:12.671Z,92.60
2018-09-28T07:21:46.156Z,92.60
2018-09-28T07:24:19.658Z,92.90
2018-09-28T07:26:53.113Z,93.60
2018-09-28T07:29:26.565Z,92.90
2018-09-28T07:32:00.076Z,90.20
2018-09-28T07:34:33.528Z,91.50
2018-09-28T07:37:07.210Z,91.80
2018-09-28T07:39:40.497Z,91.80
2018-09-28T07:42:13.987Z,92.10
2018-09-28T07:44:47.669Z,90.20
2018-09-28T07:47:21.148Z,90.20
2018-09-28T07:49:54.644Z,90.60
2018-09-28T07:52:28.115Z,90.20
2018-09-28T07:55:01.572Z,90.50
2018-09-28T07:57:35.077Z,90.60
2018-09-28T08:00:08.681Z,90.90
2018-09-28T08:02:42.148Z,90.40
2018-09-28T08:05:15.608Z,90.10
2018-09-28T08:07:49.072Z,90.30
2018-09-28T08:10:22.631Z,89.50
2018-09-28T08:12:56.113Z,90.00
2018-09-28T08:15:29.562Z,89.60
2018-09-28T08:18:03.112Z,87.90
2018-09-28T08:20:36.543Z,88.50
2018-09-28T08:23:10.027Z,89.30
2018-09-28T08:25:45.572Z,89.70
2018-09-28T08:28:19.041Z,89.50
2018-09-28T08:30:52.496Z,87.80
2018-09-28T08:33:26.000Z,87.90
2018-09-28T08:35:59.451Z,89.00
2018-09-28T08:38:32.965Z,90.40
2018-09-28T08:41:06.825Z,90.20
2018-09-28T08:43:40.368Z,84.40
2018-09-28T08:46:13.785Z,85.20
2018-09-28T08:48:49.438Z,84.70
2018-09-28T08:51:22.958Z,85.90
2018-09-28T08:53:56.440Z,87.10
2018-09-28T08:56:29.897Z,86.50
2018-09-28T08:59:03.379Z,87.60
2018-09-28T09:01:36.837Z,86.30
2018-09-28T09:04:10.324Z,83.20
2018-09-28T09:06:43.776Z,85.00
2018-09-28T09:09:17.332Z,86.20
2018-09-28T09:11:50.829Z,85.10
2018-09-28T09:14:24.319Z,84.00
2018-09-28T09:16:57.808Z,83.30
2018-09-28T09:19:31.272Z,84.30
2018-09-28T09:22:04.772Z,82.60
2018-09-28T09:24:38.265Z,82.10
2018-09-28T09:27:11.744Z,81.60
2018-09-28T09:29:45.209Z,82.70
2018-09-28T09:32:18.695Z,82.10
2018-09-28T09:34:52.137Z,82.00
2018-09-28T09:37:25.632Z,82.20
2018-09-28T09:39:59.076Z,81.90
2018-09-28T09:42:32.613Z,82.60
2018-09-28T09:45:06.108Z,83.60
2018-09-28T09:47:39.585Z,81.70
2018-09-28T09:50:13.027Z,80.90
2018-09-28T09:52:46.625Z,81.10
2018-09-28T09:55:20.060Z,81.40
2018-09-28T09:57:53.618Z,80.20
2018-09-28T10:00:32.323Z,80.10
2018-09-28T10:03:11.264Z,79.30
2018-09-28T10:05:44.760Z,79.60
2018-09-28T10:08:18.230Z,78.10
2018-09-28T10:10:51.728Z,78.30
2018-09-28T10:13:25.188Z,78.90
2018-09-28T10:15:58.896Z,78.80
2018-09-28T10:18:32.780Z,79.70
2018-09-28T10:21:06.772Z,78.10
2018-09-28T10:23:40.239Z,77.00
2018-09-28T10:26:14.003Z,77.30
2018-09-28T10:28:47.701Z,77.70
2018-09-28T10:31:21.228Z,76.40
2018-09-28T10:33:54.896Z,75.80
2018-09-28T10:36:28.337Z,77.10
2018-09-28T10:39:01.809Z,77.00
2018-09-28T10:41:35.377Z,77.50
2018-09-28T10:44:08.842Z,74.80
2018-09-28T10:46:42.340Z,75.10
2018-09-28T10:49:15.777Z,74.10
2018-09-28T10:51:49.268Z,73.80
2018-09-28T10:54:22.741Z,75.30
2018-09-28T10:56:56.172Z,73.10
2018-09-28T10:59:29.616Z,73.40
2018-09-28T11:02:03.079Z,72.90
2018-09-28T11:04:36.594Z,70.60
2018-09-28T11:07:10.006Z,69.40
2018-09-28T11:09:43.513Z,68.40
2018-09-28T11:12:16.962Z,68.40
2018-09-28T11:14:50.440Z,67.50
2018-09-28T11:17:23.923Z,68.70
2018-09-28T11:19:57.373Z,62.80
2018-09-28T11:22:30.829Z,62.70
2018-09-28T11:25:04.451Z,59.50
2018-09-28T11:27:37.891Z,61.20
2018-09-28T11:30:11.356Z,63.00
2018-09-28T11:32:44.824Z,61.00
2018-09-28T11:35:18.288Z,63.70
2018-09-28T11:37:51.736Z,61.40
2018-09-28T11:40:25.237Z,62.30
2018-09-28T11:42:58.676Z,61.50
2018-09-28T11:45:32.127Z,63.40
2018-09-28T11:48:05.589Z,64.20
2018-09-28T11:50:39.052Z,60.80
2018-09-28T11:53:12.503Z,64.50
2018-09-28T11:55:46.076Z,62.90
2018-09-28T11:58:19.537Z,60.50
2018-09-28T12:00:53.104Z,58.60
2018-09-28T12:03:26.629Z,58.10
2018-09-28T12:06:00.072Z,59.40
2018-09-28T12:08:33.730Z,60.40
2018-09-28T12:11:07.390Z,61.00
2018-09-28T12:13:40.793Z,61.30
2018-09-28T12:16:14.253Z,58.20
2018-09-28T12:18:47.748Z,56.90
2018-09-28T12:21:21.223Z,58.80
2018-09-28T12:23:54.692Z,57.20
2018-09-28T12:26:28.161Z,56.80
2018-09-28T12:29:01.639Z,59.40
2018-09-28T12:31:35.555Z,59.40
2018-09-28T12:34:09.050Z,53.70
2018-09-28T12:36:42.659Z,56.90
2018-09-28T12:39:16.218Z,57.70
2018-09-28T12:41:49.604Z,57.10
2018-09-28T12:44:23.122Z,56.10
2018-09-28T12:46:56.532Z,56.90
2018-09-28T12:49:30.000Z,56.10
2018-09-28T12:52:03.743Z,58.30
2018-09-28T12:54:37.230Z,59.80
2018-09-28T12:57:10.665Z,61.50
2018-09-28T12:59:44.136Z,62.30
2018-09-28T13:02:18.662Z,62.70
2018-09-28T13:04:52.129Z,62.00
2018-09-28T13:07:25.596Z,62.00
2018-09-28T13:09:59.113Z,64.00
2018-09-28T13:12:32.661Z,64.60
2018-09-28T13:15:06.336Z,62.00
2018-09-28T13:17:39.853Z,61.30
2018-09-28T13:20:13.365Z,62.30
2018-09-28T13:22:46.788Z,61.90
2018-09-28T13:25:20.232Z,61.00
2018-09-28T13:27:53.813Z,60.80
2018-09-28T13:30:27.379Z,61.70
2018-09-28T13:33:00.747Z,61.40
2018-09-28T13:35:35.051Z,60.90
2018-09-28T13:38:08.511Z,59.40
2018-09-28T13:40:42.476Z,60.10
2018-09-28T13:43:15.924Z,59.80
2018-09-28T13:45:49.411Z,60.00
2018-09-28T13:48:22.907Z,60.20
2018-09-28T13:50:56.340Z,58.30
2018-09-28T13:53:29.792Z,56.90
2018-09-28T13:56:03.264Z,58.90
2018-09-28T13:58:36.781Z,57.10
2018-09-28T14:01:10.215Z,58.80
2018-09-28T14:03:43.657Z,58.30
2018-09-28T14:06:17.152Z,58.90
2018-09-28T14:08:50.755Z,59.70
2018-09-28T14:11:24.152Z,61.80
2018-09-28T14:13:58.131Z,58.80
2018-09-28T14:16:31.696Z,58.10
2018-09-28T14:19:05.112Z,58.30
2018-09-28T14:21:38.608Z,58.30
2018-09-28T14:24:12.088Z,59.20
2018-09-28T14:26:45.665Z,57.70
2018-09-28T14:29:19.169Z,56.30
2018-09-28T14:31:52.626Z,56.70
2018-09-28T14:34:26.130Z,56.70
2018-09-28T14:36:59.620Z,55.10
2018-09-28T14:39:33.057Z,54.60
2018-09-28T14:42:06.546Z,55.50
2018-09-28T14:44:40.002Z,56.60
2018-09-28T14:47:13.576Z,58.10
2018-09-28T14:49:47.008Z,57.60
2018-09-28T14:52:20.487Z,58.10
2018-09-28T14:54:53.956Z,57.10
2018-09-28T14:57:27.538Z,55.50
2018-09-28T15:00:01.099Z,55.70
2018-09-28T15:02:34.645Z,55.80
2018-09-28T15:05:08.192Z,56.20
2018-09-28T15:07:41.763Z,55.20
2018-09-28T15:10:15.162Z,53.30
2018-09-28T15:12:48.832Z,52.60
2018-09-28T15:15:22.280Z,50.50
2018-09-28T15:17:55.920Z,51.80
2018-09-28T15:20:29.364Z,51.60
2018-09-28T15:23:03.176Z,49.20
2018-09-28T15:25:36.621Z,48.60
2018-09-28T15:28:10.073Z,46.90
2018-09-28T15:30:43.584Z,48.60
2018-09-28T15:33:17.199Z,49.00
2018-09-28T15:35:50.640Z,48.30
2018-09-28T15:38:24.126Z,49.40
2018-09-28T15:40:57.588Z,48.80
2018-09-28T15:43:31.045Z,49.90
2018-09-28T15:46:04.496Z,49.10
2018-09-28T15:48:37.951Z,48.00
2018-09-28T15:51:12.644Z,49.20
2018-09-28T15:53:46.100Z,48.80
2018-09-28T15:56:19.552Z,48.90
2018-09-28T15:58:53.021Z,49.90
2018-09-28T16:01:26.501Z,48.90
2018-09-28T16:03:59.990Z,48.30
2018-09-28T16:06:33.527Z,50.70
2018-09-28T16:09:08.336Z,50.30
2018-09-28T16:11:41.856Z,50.40
2018-09-28T16:14:15.311Z,50.80
2018-09-28T16:16:48.757Z,49.40
2018-09-28T16:19:22.232Z,51.90
2018-09-28T16:21:55.672Z,52.10
2018-09-28T16:24:29.126Z,52.70
2018-09-28T16:27:02.661Z,51.10
2018-09-28T16:29:36.125Z,50.70
2018-09-28T16:32:09.564Z,50.60
2018-09-28T16:34:43.037Z,51.80
2018-09-28T16:37:16.479Z,52.00
2018-09-28T16:39:50.044Z,52.60
2018-09-28T16:42:23.492Z,51.80
2018-09-28T16:44:57.073Z,52.50
2018-09-28T16:47:30.534Z,52.50
2018-09-28T16:50:04.065Z,52.60
2018-09-28T16:52:37.536Z,53.30
2018-09-28T16:55:11.018Z,53.50
2018-09-28T16:57:44.461Z,54.20
2018-09-28T17:00:17.928Z,54.50
2018-09-28T17:02:51.348Z,54.60
2018-09-28T17:05:24.857Z,55.80
